Sunday, May 27, 2018, 9:41 AM EDT
Back to Local

KGFL, Floyd Bennett Memorial Airport

Location: Queensbury, NY, United States Lat: 43.333
Local Time: 9:41 AM EDT (13:41 GMT) Lon: -73.617
Time Zone: US/Eastern Elev: 328 ft

Show me the last for .
Show Coded

Time T Td Feel RH Dir Speed Gust Alt SLP Vis Weather Sky Remarks
2018-05-27 08:53 63 53 - 70 50° 8 - 30.08 30.08 10 BKN055 None
2018-05-27 07:53 63 53 - 70 50° 9 - 30.06 30.06 10 OVC036 6-hr Min Temp (8am): 57.0°F
6-hr Max Temp (8am): 64.9°F
2018-05-27 07:23 63 54 - 72 60° 9 - 30.04 - 10 OVC032 None
2018-05-27 06:53 63 56 - 77 70° 12 - 30.02 30.02 10 OVC026 None
2018-05-27 06:04 65 60 - 84 40° 6 - 30.00 - 10 OVC028 None
2018-05-27 05:53 62 60 - 93 40° 5 - 30.00 29.99 10 BKN030 None
2018-05-27 04:53 61 60 - 96 - Calm - 29.98 29.98 10 BKN043 BKN050 None
2018-05-27 03:53 62 60 - 93 290° 3 - 29.97 29.96 10 CLR None
2018-05-27 02:53 63 60 - 90 350° 5 - 29.96 29.96 10 CLR None
2018-05-27 01:53 63 60 - 90 350° 7 - 29.96 29.95 10 CLR 6-hr Min Temp (2am): 63.0°F
6-hr Max Temp (2am): 68.0°F
2018-05-27 00:53 63 60 - 90 360° 6 - 29.94 29.94 10 BKN100 24-hr Min Temp (1am): 57.9°F
24-hr Max Temp (1am): 81.0°F
2018-05-26 23:53 63 61 - 93 360° 7 - 29.95 29.94 10 SCT120 None
2018-05-26 22:53 65 60 - 84 360° 6 - 29.94 29.93 10 FEW065 BKN080 OVC100 None
2018-05-26 21:53 65 60 - 84 360° 7 - 29.93 29.93 10 BKN060 BKN110 None
2018-05-26 20:53 66 60 - 81 330° 7 - 29.90 29.89 10 SCT055 None
2018-05-26 19:53 68 61 - 78 350° 5 - 29.87 29.87 10 BKN055 6-hr Min Temp (8pm): 68.0°F
6-hr Max Temp (8pm): 81.0°F
2018-05-26 18:53 70 62 - 76 340° 7 - 29.85 29.84 10 CLR None
2018-05-26 17:53 71 62 76 73 340° 8 - 29.82 29.81 10 FEW120 None
2018-05-26 16:53 73 62 77 68 40° 12 - 29.80 29.80 10 CLR None
2018-05-26 15:53 81 63 83 54 80° 3 - 29.77 29.76 10 CLR None
2018-05-26 14:53 80 61 81 52 220° 7 - 29.76 29.75 10 CLR None
2018-05-26 13:53 78 60 80 54 160° 9 - 29.76 29.75 10 CLR 6-hr Min Temp (2pm): 66.9°F
6-hr Max Temp (2pm): 79.0°F
2018-05-26 12:53 79 59 80 50 190° 8 - 29.76 29.75 10 CLR None
2018-05-26 11:53 75 59 78 57 190° 8 - 29.77 29.76 10 CLR None
2018-05-26 10:53 72 58 76 61 190° 7 - 29.78 29.77 10 CLR None
2018-05-26 09:53 70 57 - 63 200° 5 - 29.78 29.77 10 CLR None

Support USWX by starting your Amazon purchase here.